createdAt,value
2019-04-20T00:02:33.717Z,16.87
2019-04-20T00:07:41.840Z,16.63
2019-04-20T00:13:03.918Z,12.97
2019-04-20T00:18:04.396Z,15.80
2019-04-20T00:23:26.957Z,15.47
2019-04-20T00:28:45.691Z,19.60
2019-04-20T00:33:50.692Z,18.17
2019-04-20T00:38:52.948Z,14.67
2019-04-20T00:43:57.795Z,17.80
2019-04-20T00:49:20.733Z,25.33
2019-04-20T00:54:13.624Z,18.73
2019-04-20T00:59:31.736Z,15.10
2019-04-20T01:04:47.668Z,18.13
2019-04-20T01:10:05.022Z,16.93
2019-04-20T01:15:22.866Z,19.40
2019-04-20T01:20:22.619Z,14.83
2019-04-20T01:25:35.540Z,15.20
2019-04-20T01:30:44.447Z,16.17
2019-04-20T01:36:03.461Z,16.63
2019-04-20T01:40:59.043Z,17.13
2019-04-20T01:46:12.069Z,14.93
2019-04-20T01:51:22.827Z,17.37
2019-04-20T01:56:37.703Z,20.03
2019-04-20T02:01:55.784Z,20.30
2019-04-20T02:07:00.467Z,15.93
2019-04-20T02:12:12.118Z,19.03
2019-04-20T02:17:26.201Z,15.70
2019-04-20T02:22:45.116Z,15.80
2019-04-20T02:27:38.603Z,17.67
2019-04-20T02:33:30.019Z,16.43
2019-04-20T02:38:54.334Z,14.13
2019-04-20T02:44:03.761Z,15.27
2019-04-20T02:49:06.051Z,16.97
2019-04-20T02:54:11.485Z,16.37
2019-04-20T02:59:44.646Z,16.33
2019-04-20T03:03:53.898Z,16.50
2019-04-20T03:09:19.860Z,10.93
2019-04-20T03:14:22.464Z,13.13
2019-04-20T03:19:28.649Z,11.93
2019-04-20T03:24:51.558Z,10.70
2019-04-20T03:30:00.597Z,12.07
2019-04-20T03:35:20.961Z,12.73
2019-04-20T03:40:17.646Z,12.77
2019-04-20T03:45:14.912Z,10.25
2019-04-20T03:50:42.522Z,9.60
2019-04-20T03:56:14.041Z,10.23
2019-04-20T04:01:45.942Z,9.73
2019-04-20T04:06:26.348Z,8.23
2019-04-20T04:11:41.402Z,8.53
2019-04-20T04:16:42.834Z,7.53
2019-04-20T04:22:00.801Z,8.43
2019-04-20T04:27:05.892Z,8.07
2019-04-20T04:32:33.328Z,14.28
2019-04-20T04:37:24.309Z,10.65
2019-04-20T04:42:42.386Z,10.90
2019-04-20T04:47:28.603Z,10.77
2019-04-20T04:52:47.839Z,10.57
2019-04-20T04:57:45.375Z,9.63
2019-04-20T05:02:55.530Z,8.03
2019-04-20T05:08:10.201Z,8.87
2019-04-20T05:13:11.312Z,8.77
2019-04-20T05:18:44.920Z,8.83
2019-04-20T05:23:53.277Z,6.40
2019-04-20T05:28:58.965Z,6.73
2019-04-20T05:34:20.399Z,5.70
2019-04-20T05:39:36.827Z,7.13
2019-04-20T05:44:48.609Z,6.17
2019-04-20T05:49:50.083Z,4.97
2019-04-20T05:55:02.973Z,8.07
2019-04-20T06:00:15.898Z,5.73
2019-04-20T06:05:21.980Z,9.27
2019-04-20T06:10:36.121Z,6.77
2019-04-20T06:15:44.658Z,6.60
2019-04-20T06:20:52.392Z,5.70
2019-04-20T06:26:20.572Z,5.97
2019-04-20T06:31:14.935Z,7.80
2019-04-20T06:36:29.216Z,5.93
2019-04-20T06:41:45.373Z,5.77
2019-04-20T06:46:45.636Z,3.87
2019-04-20T06:51:54.287Z,6.23
2019-04-20T06:57:04.227Z,5.40
2019-04-20T07:02:18.707Z,3.63
2019-04-20T07:07:22.685Z,4.70
2019-04-20T07:12:24.360Z,3.80
2019-04-20T07:23:03.623Z,4.70
2019-04-20T07:28:05.370Z,3.07
2019-04-20T07:33:18.714Z,6.13
2019-04-20T07:38:41.788Z,4.60
2019-04-20T07:43:30.135Z,2.40
2019-04-20T07:48:39.626Z,8.30
2019-04-20T07:53:43.081Z,5.40
2019-04-20T07:58:47.486Z,5.23
2019-04-20T08:04:13.584Z,2.90
2019-04-20T08:09:22.018Z,3.00
2019-04-20T08:14:48.015Z,2.53
2019-04-20T08:19:49.499Z,2.10
2019-04-20T08:24:52.254Z,2.33
2019-04-20T08:30:02.076Z,2.73
2019-04-20T08:35:25.939Z,3.90
2019-04-20T08:40:36.080Z,3.87
2019-04-20T08:45:41.940Z,2.53
2019-04-20T08:50:55.595Z,4.17
2019-04-20T08:55:53.786Z,2.73
2019-04-20T09:00:53.587Z,2.27
2019-04-20T09:06:04.711Z,2.20
2019-04-20T09:11:20.285Z,4.22
2019-04-20T09:16:15.372Z,1.87
2019-04-20T09:21:33.071Z,5.27
2019-04-20T09:26:50.559Z,2.53
2019-04-20T09:32:16.769Z,2.50
2019-04-20T09:37:41.731Z,2.40
2019-04-20T09:42:46.762Z,2.70
2019-04-20T09:47:56.640Z,2.13
2019-04-20T09:53:19.569Z,3.43
2019-04-20T09:58:21.312Z,2.40
2019-04-20T10:03:20.945Z,4.63
2019-04-20T10:08:29.331Z,5.30
2019-04-20T10:13:36.724Z,2.53
2019-04-20T10:18:46.810Z,3.50
2019-04-20T10:23:52.615Z,3.17
2019-04-20T10:28:59.989Z,3.83
2019-04-20T10:34:07.409Z,2.50
2019-04-20T10:39:16.255Z,2.33
2019-04-20T10:44:23.436Z,2.70
2019-04-20T10:49:31.198Z,6.03
2019-04-20T10:54:38.524Z,5.30
2019-04-20T10:59:47.755Z,6.23
2019-04-20T11:04:54.883Z,3.50
2019-04-20T11:10:13.411Z,4.93
2019-04-20T11:15:12.966Z,3.93
2019-04-20T11:20:21.374Z,4.37
2019-04-20T11:25:30.255Z,7.67
2019-04-20T11:30:38.833Z,4.73
2019-04-20T11:35:46.912Z,5.40
2019-04-20T11:41:09.916Z,2.53
2019-04-20T11:46:04.835Z,6.20
2019-04-20T11:51:13.792Z,3.33
2019-04-20T11:56:26.196Z,4.28
2019-04-20T12:01:49.349Z,4.47
2019-04-20T12:06:54.837Z,5.67
2019-04-20T12:12:15.721Z,4.23
2019-04-20T12:17:11.899Z,4.70
2019-04-20T12:22:19.080Z,10.33
2019-04-20T12:27:26.958Z,5.93
2019-04-20T12:32:42.248Z,9.17
2019-04-20T12:37:43.168Z,8.77
2019-04-20T12:42:50.926Z,5.40
2019-04-20T12:47:58.136Z,6.25
2019-04-20T12:53:06.526Z,7.45
2019-04-20T12:58:14.580Z,5.60
2019-04-20T13:03:23.450Z,4.95
2019-04-20T13:08:36.820Z,6.55
2019-04-20T13:14:10.343Z,4.72
2019-04-20T13:19:19.433Z,4.67
2019-04-20T13:24:27.213Z,6.90
2019-04-20T13:29:35.123Z,9.85
2019-04-20T13:34:42.788Z,5.17
2019-04-20T13:39:51.086Z,7.22
2019-04-20T13:44:59.078Z,6.25
2019-04-20T13:50:07.230Z,6.22
2019-04-20T13:55:14.867Z,5.00
2019-04-20T14:00:45.046Z,5.60
2019-04-20T14:05:53.656Z,8.25
2019-04-20T14:11:00.832Z,6.22
2019-04-20T14:16:09.119Z,10.75
2019-04-20T14:21:18.483Z,7.78
2019-04-20T14:26:25.668Z,5.83
2019-04-20T14:31:33.971Z,5.08
2019-04-20T14:36:41.589Z,4.33
2019-04-20T14:41:48.710Z,4.78
2019-04-20T14:46:57.992Z,6.65
2019-04-20T14:52:06.338Z,4.75
2019-04-20T14:57:13.809Z,4.85
2019-04-20T15:02:25.827Z,7.42
2019-04-20T15:07:33.510Z,5.70
2019-04-20T15:12:48.833Z,5.55
2019-04-20T15:17:55.422Z,5.10
2019-04-20T15:23:09.553Z,7.78
2019-04-20T15:28:16.797Z,8.28
2019-04-20T15:33:25.128Z,5.95
2019-04-20T15:38:33.283Z,10.40
2019-04-20T15:43:41.461Z,9.78
2019-04-20T15:48:50.127Z,8.50
2019-04-20T15:53:57.753Z,30.70
2019-04-20T15:59:06.428Z,6.60
2019-04-20T16:04:37.281Z,6.07
2019-04-20T16:09:42.124Z,6.37
2019-04-20T16:14:51.337Z,10.25
2019-04-20T16:20:07.983Z,17.02
2019-04-20T16:25:21.648Z,7.87
2019-04-20T16:30:29.755Z,6.10
2019-04-20T16:35:38.285Z,7.78
2019-04-20T16:40:46.533Z,23.22
2019-04-20T16:45:55.066Z,7.30
2019-04-20T16:51:02.958Z,15.83
2019-04-20T16:56:10.632Z,9.55
2019-04-20T17:01:17.752Z,11.03
2019-04-20T17:06:26.311Z,7.35
2019-04-20T17:11:34.086Z,9.15
2019-04-20T17:16:41.912Z,7.53
2019-04-20T17:21:49.104Z,7.55
2019-04-20T17:27:13.163Z,7.33
2019-04-20T17:32:23.248Z,9.80
2019-04-20T17:37:39.026Z,11.43
2019-04-20T17:42:50.952Z,7.37
2019-04-20T17:48:05.332Z,6.93
2019-04-20T17:53:08.942Z,7.87
2019-04-20T17:58:13.775Z,6.90
2019-04-20T18:03:52.843Z,5.85
2019-04-20T18:08:45.386Z,8.03
2019-04-20T18:13:35.918Z,7.17
2019-04-20T18:19:04.014Z,6.70
2019-04-20T18:24:14.139Z,6.23
2019-04-20T18:29:38.398Z,6.97
2019-04-20T18:34:44.982Z,6.50
2019-04-20T18:39:57.466Z,8.80
2019-04-20T18:45:20.049Z,11.37
2019-04-20T18:50:18.414Z,18.97
2019-04-20T18:55:29.048Z,15.60
2019-04-20T19:00:33.397Z,8.53
2019-04-20T19:05:38.003Z,10.03
2019-04-20T19:10:54.181Z,12.33
2019-04-20T19:16:17.581Z,10.20
2019-04-20T19:21:15.197Z,11.13
2019-04-20T19:26:23.790Z,12.47
2019-04-20T19:31:45.842Z,8.40
2019-04-20T19:36:53.375Z,9.47
2019-04-20T19:41:59.678Z,15.37
2019-04-20T19:47:15.885Z,10.83
2019-04-20T19:52:36.769Z,12.27
2019-04-20T19:57:35.091Z,8.83
2019-04-20T20:02:25.931Z,13.13
2019-04-20T20:07:41.192Z,10.37
2019-04-20T20:12:47.951Z,11.03
2019-04-20T20:18:10.976Z,12.60
2019-04-20T20:23:01.853Z,12.53
2019-04-20T20:28:19.127Z,7.27
2019-04-20T20:33:36.405Z,12.93
2019-04-20T20:38:35.255Z,14.83
2019-04-20T20:43:49.570Z,11.90
2019-04-20T20:49:06.213Z,13.90
2019-04-20T20:54:02.246Z,12.23
2019-04-20T20:59:10.543Z,12.40
2019-04-20T21:04:10.063Z,15.10
2019-04-20T21:09:18.495Z,10.03
2019-04-20T21:14:29.261Z,12.63
2019-04-20T21:19:55.794Z,12.67
2019-04-20T21:24:49.808Z,19.23
2019-04-20T21:29:58.658Z,13.80
2019-04-20T21:35:11.039Z,15.23
2019-04-20T21:40:24.931Z,9.50
2019-04-20T21:45:30.330Z,16.87
2019-04-20T21:50:53.447Z,13.57
2019-04-20T21:55:43.726Z,14.00
2019-04-20T22:01:07.236Z,12.87
2019-04-20T22:06:06.924Z,11.77
2019-04-20T22:11:15.669Z,14.90
2019-04-20T22:16:25.595Z,10.93
2019-04-20T22:21:46.629Z,14.60
2019-04-20T22:26:52.444Z,12.33
2019-04-20T22:31:53.486Z,14.83
2019-04-20T22:36:58.216Z,15.33
2019-04-20T22:42:09.628Z,16.03
2019-04-20T22:47:22.682Z,14.80
2019-04-20T22:52:40.920Z,15.70
2019-04-20T22:57:48.837Z,19.97
2019-04-20T23:02:42.865Z,15.77
2019-04-20T23:07:50.565Z,14.63
2019-04-20T23:12:59.569Z,18.53
2019-04-20T23:18:06.552Z,15.17
2019-04-20T23:23:18.191Z,15.97
2019-04-20T23:28:23.048Z,19.70
2019-04-20T23:33:31.819Z,18.53
2019-04-20T23:38:49.078Z,15.93
2019-04-20T23:44:04.175Z,20.13
2019-04-20T23:49:29.874Z,18.73
2019-04-20T23:54:37.053Z,23.73
2019-04-20T23:59:44.940Z,16.30
